createdAt,value
2023-03-06T00:00:38.825Z,11.30
2023-03-06T00:03:07.295Z,12.47
2023-03-06T00:05:35.334Z,13.30
2023-03-06T00:08:03.075Z,13.00
2023-03-06T00:10:32.371Z,12.80
2023-03-06T00:13:02.702Z,12.07
2023-03-06T00:15:32.291Z,12.53
2023-03-06T00:18:00.152Z,12.40
2023-03-06T00:20:28.183Z,11.87
2023-03-06T00:22:57.278Z,12.47
2023-03-06T00:25:25.020Z,12.60
2023-03-06T00:27:53.210Z,13.70
2023-03-06T00:30:24.053Z,12.90
2023-03-06T00:32:54.024Z,12.90
2023-03-06T00:35:21.916Z,14.10
2023-03-06T00:37:49.592Z,12.53
2023-03-06T00:40:20.359Z,13.27
2023-03-06T00:42:48.873Z,13.10
2023-03-06T00:45:16.807Z,13.53
2023-03-06T00:47:44.745Z,13.20
2023-03-06T00:50:13.841Z,14.70
2023-03-06T00:52:42.110Z,14.10
2023-03-06T00:55:10.733Z,13.47
2023-03-06T00:57:38.794Z,14.07
2023-03-06T01:00:07.843Z,13.87
2023-03-06T01:02:35.656Z,14.10
2023-03-06T01:05:03.382Z,13.83
2023-03-06T01:07:34.027Z,14.80
2023-03-06T01:10:01.643Z,14.13
2023-03-06T01:12:29.290Z,12.87
2023-03-06T01:14:57.023Z,13.10
2023-03-06T01:17:24.648Z,13.03
2023-03-06T01:19:52.418Z,12.97
2023-03-06T01:22:20.054Z,13.07
2023-03-06T01:24:48.984Z,13.27
2023-03-06T01:27:16.641Z,12.07
2023-03-06T01:29:44.237Z,13.10
2023-03-06T01:32:11.921Z,12.13
2023-03-06T01:34:39.593Z,13.07
2023-03-06T01:37:07.437Z,13.07
2023-03-06T01:39:35.074Z,13.53
2023-03-06T01:42:04.672Z,13.50
2023-03-06T01:44:32.413Z,13.93
2023-03-06T01:47:02.261Z,13.53
2023-03-06T01:49:33.130Z,15.27
2023-03-06T01:52:03.349Z,12.90
2023-03-06T01:54:34.654Z,13.77
2023-03-06T01:57:08.585Z,15.03
2023-03-06T01:59:40.200Z,15.27
2023-03-06T02:02:11.772Z,15.00
2023-03-06T02:04:42.308Z,15.13
2023-03-06T02:07:11.341Z,15.47
2023-03-06T02:09:39.717Z,15.80
2023-03-06T02:12:11.913Z,15.90
2023-03-06T02:14:40.370Z,15.90
2023-03-06T02:17:09.763Z,15.77
2023-03-06T02:19:45.638Z,16.27
2023-03-06T02:22:13.348Z,15.77
2023-03-06T02:24:49.547Z,15.83
2023-03-06T02:27:19.955Z,15.03
2023-03-06T02:29:47.938Z,16.93
2023-03-06T02:32:15.557Z,15.53
2023-03-06T02:34:53.803Z,15.80
2023-03-06T02:37:22.511Z,20.07
2023-03-06T02:39:56.290Z,19.83
2023-03-06T02:42:28.839Z,18.20
2023-03-06T02:44:59.158Z,17.60
2023-03-06T02:47:26.987Z,17.47
2023-03-06T02:49:54.760Z,16.10
2023-03-06T02:52:22.643Z,17.37
2023-03-06T02:54:50.263Z,15.60
2023-03-06T02:57:17.847Z,16.90
2023-03-06T02:59:46.862Z,17.00
2023-03-06T03:02:14.532Z,18.57
2023-03-06T03:04:42.133Z,18.03
2023-03-06T03:07:09.801Z,17.70
2023-03-06T03:09:37.689Z,18.03
2023-03-06T03:12:07.093Z,16.70
2023-03-06T03:14:34.766Z,16.47
2023-03-06T03:17:03.916Z,17.47
2023-03-06T03:19:31.747Z,17.40
2023-03-06T03:21:59.869Z,17.37
2023-03-06T03:24:27.796Z,17.43
2023-03-06T03:26:55.580Z,17.57
2023-03-06T03:29:23.359Z,15.53
2023-03-06T03:31:50.948Z,15.47
2023-03-06T03:34:19.971Z,15.53
2023-03-06T03:36:47.779Z,17.60
2023-03-06T03:39:15.839Z,16.27
2023-03-06T03:41:43.520Z,16.87
2023-03-06T03:44:11.475Z,18.13
2023-03-06T03:46:40.102Z,15.80
2023-03-06T03:49:07.766Z,17.00
2023-03-06T03:51:36.905Z,15.67
2023-03-06T03:54:06.148Z,17.50
2023-03-06T03:56:34.782Z,15.93
2023-03-06T03:59:02.487Z,18.77
2023-03-06T04:01:30.135Z,16.87
2023-03-06T04:03:57.728Z,17.63
2023-03-06T04:06:25.438Z,18.40
2023-03-06T04:08:54.482Z,16.77
2023-03-06T04:11:22.388Z,18.30
2023-03-06T04:13:50.023Z,18.00
2023-03-06T04:16:17.727Z,20.13
2023-03-06T04:18:45.372Z,19.30
2023-03-06T04:21:13.025Z,22.20
2023-03-06T04:23:40.676Z,20.40
2023-03-06T04:26:10.620Z,20.37
2023-03-06T04:28:39.026Z,20.40
2023-03-06T04:31:06.824Z,21.80
2023-03-06T04:33:34.816Z,21.30
2023-03-06T04:36:02.488Z,22.53
2023-03-06T04:38:30.075Z,21.00
2023-03-06T04:40:57.808Z,20.83
2023-03-06T04:43:27.061Z,22.67
2023-03-06T04:45:54.661Z,22.73
2023-03-06T04:48:22.562Z,23.50
2023-03-06T04:50:50.210Z,23.73
2023-03-06T04:53:19.589Z,22.00
2023-03-06T04:55:47.405Z,22.03
2023-03-06T04:58:15.375Z,22.07
2023-03-06T05:00:44.687Z,22.30
2023-03-06T05:03:14.201Z,22.70
2023-03-06T05:05:41.833Z,23.27
2023-03-06T05:08:14.285Z,21.80
2023-03-06T05:10:41.950Z,21.93
2023-03-06T05:13:09.993Z,22.23
2023-03-06T05:15:37.648Z,21.70
2023-03-06T05:18:06.748Z,22.10
2023-03-06T05:20:34.340Z,21.20
2023-03-06T05:23:01.989Z,22.13
2023-03-06T05:25:29.642Z,21.60
2023-03-06T05:27:58.277Z,22.33
2023-03-06T05:30:25.883Z,22.53
2023-03-06T05:32:53.632Z,21.57
2023-03-06T05:35:24.089Z,22.83
2023-03-06T05:37:52.399Z,20.70
2023-03-06T05:40:20.771Z,21.10
2023-03-06T05:42:48.415Z,20.83
2023-03-06T05:45:16.239Z,21.70
2023-03-06T05:47:43.969Z,22.13
2023-03-06T05:50:13.916Z,21.70
2023-03-06T05:52:42.974Z,22.27
2023-03-06T05:55:13.365Z,23.17
2023-03-06T05:57:41.570Z,23.20
2023-03-06T06:00:10.563Z,21.83
2023-03-06T06:02:38.344Z,22.63
2023-03-06T06:05:06.456Z,22.63
2023-03-06T06:07:34.088Z,23.47
2023-03-06T06:10:03.972Z,23.03
2023-03-06T06:12:32.188Z,23.17
2023-03-06T06:14:59.904Z,22.70
2023-03-06T06:17:27.934Z,22.70
2023-03-06T06:19:55.984Z,22.50
2023-03-06T06:22:23.627Z,22.27
2023-03-06T06:24:51.311Z,22.50
2023-03-06T06:27:20.417Z,22.30
2023-03-06T06:29:51.654Z,22.17
2023-03-06T06:32:19.359Z,22.93
2023-03-06T06:34:47.022Z,23.77
2023-03-06T06:37:14.664Z,22.70
2023-03-06T06:39:42.365Z,21.80
2023-03-06T06:42:29.430Z,22.10
2023-03-06T06:44:59.171Z,21.60
2023-03-06T06:47:26.965Z,21.37
2023-03-06T06:49:56.358Z,22.60
2023-03-06T06:52:24.833Z,23.20
2023-03-06T06:54:53.064Z,22.23
2023-03-06T06:57:21.049Z,22.53
2023-03-06T06:59:48.701Z,21.90
2023-03-06T07:02:17.700Z,22.70
2023-03-06T07:05:02.064Z,20.90
2023-03-06T07:07:31.226Z,21.97
2023-03-06T07:09:59.032Z,21.07
2023-03-06T07:12:26.962Z,21.03
2023-03-06T07:14:54.631Z,22.23
2023-03-06T07:17:23.608Z,21.13
2023-03-06T07:19:51.523Z,21.90
2023-03-06T07:22:19.143Z,22.47
2023-03-06T07:24:46.721Z,22.20
2023-03-06T07:27:14.348Z,23.50
2023-03-06T07:29:43.754Z,22.70
2023-03-06T07:32:11.425Z,22.37
2023-03-06T07:34:40.385Z,23.13
2023-03-06T07:37:08.064Z,21.60
2023-03-06T07:39:35.968Z,21.83
2023-03-06T07:42:03.970Z,21.73
2023-03-06T07:44:31.822Z,21.67
2023-03-06T07:46:59.989Z,22.13
2023-03-06T07:49:27.610Z,22.00
2023-03-06T07:51:56.926Z,20.70
2023-03-06T07:54:24.684Z,20.80
2023-03-06T07:56:52.874Z,19.63
2023-03-06T07:59:20.625Z,19.10
2023-03-06T08:01:48.276Z,19.53
2023-03-06T08:04:15.958Z,19.33
2023-03-06T08:06:43.625Z,19.73
2023-03-06T08:09:12.599Z,19.70
2023-03-06T08:11:40.233Z,19.03
2023-03-06T08:14:07.809Z,20.67
2023-03-06T08:16:35.537Z,19.10
2023-03-06T08:19:03.221Z,19.63
2023-03-06T08:21:30.963Z,18.37
2023-03-06T08:23:58.586Z,18.17
2023-03-06T08:26:29.134Z,18.83
2023-03-06T08:28:59.625Z,17.67
2023-03-06T08:31:29.556Z,17.80
2023-03-06T08:33:59.590Z,17.67
2023-03-06T08:36:27.440Z,18.67
2023-03-06T08:38:55.649Z,18.13
2023-03-06T08:41:24.086Z,17.60
2023-03-06T08:43:53.220Z,17.53
2023-03-06T08:46:23.294Z,16.90
2023-03-06T08:48:50.983Z,16.60
2023-03-06T08:51:19.715Z,15.70
2023-03-06T08:53:47.399Z,15.43
2023-03-06T08:56:19.761Z,16.57
2023-03-06T08:58:47.952Z,15.10
2023-03-06T09:01:18.542Z,14.53
2023-03-06T09:03:46.553Z,14.83
2023-03-06T09:06:15.065Z,13.40
2023-03-06T09:08:44.461Z,13.27
2023-03-06T09:11:12.882Z,14.10
2023-03-06T09:13:40.860Z,13.20
2023-03-06T09:16:09.429Z,13.60
2023-03-06T09:18:38.467Z,13.37
2023-03-06T09:21:07.366Z,13.80
2023-03-06T09:23:36.022Z,14.10
2023-03-06T09:26:03.841Z,13.83
2023-03-06T09:28:31.434Z,13.43
2023-03-06T09:30:59.318Z,13.60
2023-03-06T09:33:28.651Z,14.60
2023-03-06T09:35:58.522Z,14.93
2023-03-06T09:38:28.159Z,14.30
2023-03-06T09:41:09.739Z,14.17
2023-03-06T09:43:41.040Z,14.33
2023-03-06T09:46:19.410Z,15.80
2023-03-06T09:48:58.930Z,13.10
2023-03-06T09:51:35.770Z,13.73
2023-03-06T09:54:11.293Z,13.37
2023-03-06T09:56:40.478Z,13.57
2023-03-06T09:59:14.968Z,13.23
2023-03-06T10:01:45.436Z,10.67
2023-03-06T10:04:29.982Z,9.53
2023-03-06T10:07:03.049Z,8.73
2023-03-06T10:09:41.239Z,9.37
2023-03-06T10:12:22.977Z,9.03
2023-03-06T10:15:00.819Z,8.50
2023-03-06T10:17:35.688Z,7.83
2023-03-06T10:20:15.850Z,8.00
2023-03-06T10:23:00.577Z,8.80
2023-03-06T10:25:37.858Z,8.10
2023-03-06T10:28:16.912Z,7.07
2023-03-06T10:30:52.242Z,6.83
2023-03-06T10:33:30.461Z,6.53
2023-03-06T10:35:58.819Z,5.70
2023-03-06T10:38:29.188Z,10.33
2023-03-06T10:41:08.839Z,5.77
2023-03-06T10:43:37.649Z,7.17
2023-03-06T10:46:06.501Z,6.37
2023-03-06T10:48:36.957Z,7.13
2023-03-06T10:51:19.013Z,6.90
2023-03-06T10:53:54.013Z,6.90
2023-03-06T10:56:30.181Z,6.90
2023-03-06T10:59:09.806Z,6.33
2023-03-06T11:01:37.521Z,5.97
2023-03-06T11:04:24.753Z,6.17
2023-03-06T11:07:07.388Z,5.70
2023-03-06T11:09:36.922Z,6.50
2023-03-06T11:12:22.299Z,6.50
2023-03-06T11:15:09.517Z,6.43
2023-03-06T11:17:38.804Z,6.40
2023-03-06T11:20:20.529Z,5.90
2023-03-06T11:22:51.915Z,6.73
2023-03-06T11:25:23.109Z,5.77
2023-03-06T11:27:58.866Z,5.20
2023-03-06T11:30:32.387Z,6.37
2023-03-06T11:33:05.196Z,5.73
2023-03-06T11:35:42.101Z,5.63
2023-03-06T11:38:15.898Z,5.00
2023-03-06T11:40:53.731Z,5.60
2023-03-06T11:43:26.519Z,5.90
2023-03-06T11:46:00.584Z,4.70
2023-03-06T11:48:32.736Z,5.30
2023-03-06T11:51:08.227Z,4.90
2023-03-06T11:53:38.526Z,5.20
2023-03-06T11:56:22.741Z,4.60
2023-03-06T11:59:08.905Z,5.00
2023-03-06T12:01:39.518Z,4.90
2023-03-06T12:04:42.680Z,4.37
2023-03-06T12:07:22.616Z,4.70
2023-03-06T12:09:57.120Z,5.13
2023-03-06T12:12:52.883Z,4.30
2023-03-06T12:15:29.440Z,5.00
2023-03-06T12:18:29.641Z,4.43
2023-03-06T12:21:04.796Z,4.90
2023-03-06T12:24:04.889Z,4.97
2023-03-06T12:26:52.820Z,3.90
2023-03-06T12:29:42.473Z,4.60
2023-03-06T12:32:26.511Z,4.60
2023-03-06T12:35:18.506Z,7.20
2023-03-06T12:37:58.140Z,4.57
2023-03-06T12:41:03.799Z,5.60
2023-03-06T12:43:55.957Z,4.40
2023-03-06T12:46:26.293Z,4.37
2023-03-06T12:49:03.816Z,4.70
2023-03-06T12:51:33.362Z,4.27
2023-03-06T12:54:04.091Z,4.70
2023-03-06T12:56:33.207Z,4.77
2023-03-06T12:59:02.429Z,5.70
2023-03-06T13:02:07.274Z,6.00
2023-03-06T13:04:49.835Z,7.07
2023-03-06T13:07:28.743Z,7.30
2023-03-06T13:10:23.189Z,9.03
2023-03-06T13:12:55.815Z,6.10
2023-03-06T13:15:42.133Z,5.60
2023-03-06T13:18:47.271Z,4.33
2023-03-06T13:21:46.687Z,4.07
2023-03-06T13:24:21.054Z,4.00
2023-03-06T13:26:52.103Z,4.33
2023-03-06T13:29:52.728Z,3.80
2023-03-06T13:32:30.748Z,4.00
2023-03-06T13:34:59.984Z,4.47
2023-03-06T13:37:50.838Z,4.20
2023-03-06T13:40:37.833Z,4.93
2023-03-06T13:43:23.169Z,6.13
2023-03-06T13:45:51.566Z,4.73
2023-03-06T13:48:43.762Z,4.93
2023-03-06T13:51:24.873Z,5.00
2023-03-06T13:54:17.878Z,4.40
2023-03-06T13:57:22.864Z,4.30
2023-03-06T14:00:11.980Z,3.80
2023-03-06T14:02:57.359Z,4.50
2023-03-06T14:05:26.091Z,5.83
2023-03-06T14:08:10.433Z,4.60
2023-03-06T14:10:39.841Z,4.23
2023-03-06T14:13:15.578Z,4.10
2023-03-06T14:15:46.167Z,3.50
2023-03-06T14:18:18.870Z,3.63
2023-03-06T14:20:50.894Z,3.73
2023-03-06T14:23:30.935Z,3.40
2023-03-06T14:26:08.606Z,3.73
2023-03-06T14:28:37.801Z,6.50
2023-03-06T14:31:06.893Z,3.17
2023-03-06T14:33:42.920Z,4.40
2023-03-06T14:36:15.553Z,3.70
2023-03-06T14:38:50.836Z,3.70
2023-03-06T14:41:27.013Z,5.40
2023-03-06T14:44:08.866Z,5.43
2023-03-06T14:46:36.718Z,4.03
2023-03-06T14:49:08.205Z,5.13
2023-03-06T14:51:41.653Z,4.10
2023-03-06T14:54:17.023Z,4.13
2023-03-06T14:56:46.267Z,4.10
2023-03-06T14:59:18.062Z,4.40
2023-03-06T15:01:49.441Z,5.03
2023-03-06T15:04:26.044Z,5.97
2023-03-06T15:06:54.959Z,4.30
2023-03-06T15:09:28.773Z,3.50
2023-03-06T15:11:59.578Z,3.83
2023-03-06T15:14:36.190Z,3.60
2023-03-06T15:17:21.560Z,3.57
2023-03-06T15:19:51.943Z,3.03
2023-03-06T15:22:27.885Z,4.00
2023-03-06T15:25:15.293Z,4.63
2023-03-06T15:27:49.683Z,4.60
2023-03-06T15:30:24.046Z,4.23
2023-03-06T15:32:52.203Z,2.70
2023-03-06T15:35:32.660Z,4.03
2023-03-06T15:38:00.775Z,2.97
2023-03-06T15:40:31.940Z,3.03
2023-03-06T15:43:00.183Z,4.07
2023-03-06T15:45:29.470Z,5.03
2023-03-06T15:47:57.132Z,3.23
2023-03-06T15:50:26.925Z,3.37
2023-03-06T15:52:54.877Z,3.90
2023-03-06T15:55:25.681Z,4.23
2023-03-06T15:57:56.416Z,5.53
2023-03-06T16:00:28.296Z,4.00
2023-03-06T16:02:56.840Z,3.50
2023-03-06T16:05:25.286Z,4.57
2023-03-06T16:07:52.927Z,4.07
2023-03-06T16:10:23.036Z,4.20
2023-03-06T16:12:52.675Z,3.90
2023-03-06T16:15:23.711Z,3.40
2023-03-06T16:17:51.338Z,4.90
2023-03-06T16:20:21.186Z,4.37
2023-03-06T16:22:50.662Z,4.17
2023-03-06T16:25:18.963Z,3.90
2023-03-06T16:27:50.714Z,3.63
2023-03-06T16:30:21.440Z,3.80
2023-03-06T16:32:50.090Z,4.57
2023-03-06T16:35:19.047Z,3.67
2023-03-06T16:37:47.873Z,4.30
2023-03-06T16:40:20.187Z,4.47
2023-03-06T16:42:47.900Z,5.00
2023-03-06T16:45:16.322Z,4.40
2023-03-06T16:47:47.137Z,3.97
2023-03-06T16:50:23.499Z,4.00
2023-03-06T16:52:51.324Z,5.23
2023-03-06T16:55:19.641Z,7.07
2023-03-06T16:57:47.479Z,4.37
2023-03-06T17:00:16.797Z,5.00
2023-03-06T17:02:48.879Z,4.30
2023-03-06T17:05:16.677Z,4.93
2023-03-06T17:07:44.366Z,5.30
2023-03-06T17:10:14.658Z,5.43
2023-03-06T17:12:42.478Z,5.00
2023-03-06T17:15:11.332Z,5.67
2023-03-06T17:17:39.726Z,5.90
2023-03-06T17:20:10.631Z,5.97
2023-03-06T17:22:38.655Z,7.30
2023-03-06T17:25:08.211Z,5.63
2023-03-06T17:27:36.798Z,5.57
2023-03-06T17:30:05.536Z,5.00
2023-03-06T17:32:33.696Z,6.70
2023-03-06T17:35:01.421Z,5.30
2023-03-06T17:37:30.534Z,6.30
2023-03-06T17:39:58.156Z,5.93
2023-03-06T17:42:25.935Z,5.80
2023-03-06T17:44:53.552Z,5.60
2023-03-06T17:47:21.172Z,6.17
2023-03-06T17:49:48.786Z,7.43
2023-03-06T17:52:16.474Z,6.30
2023-03-06T17:54:46.285Z,7.07
2023-03-06T17:57:13.930Z,6.20
2023-03-06T17:59:46.659Z,6.17
2023-03-06T18:02:14.429Z,6.80
2023-03-06T18:04:42.927Z,6.60
2023-03-06T18:07:10.616Z,7.60
2023-03-06T18:09:38.525Z,7.57
2023-03-06T18:12:07.900Z,6.67
2023-03-06T18:14:37.080Z,6.80
2023-03-06T18:17:05.538Z,8.43
2023-03-06T18:19:33.471Z,6.67
2023-03-06T18:22:01.040Z,6.33
2023-03-06T18:24:28.739Z,6.73
2023-03-06T18:26:56.334Z,6.03
2023-03-06T18:29:25.779Z,7.03
2023-03-06T18:31:53.973Z,8.53
2023-03-06T18:34:21.780Z,10.00
2023-03-06T18:36:51.644Z,11.17
2023-03-06T18:39:21.440Z,7.23
2023-03-06T18:41:49.244Z,9.40
2023-03-06T18:44:17.608Z,10.00
2023-03-06T18:46:46.614Z,10.73
2023-03-06T18:49:16.868Z,11.90
2023-03-06T18:51:44.541Z,10.03
2023-03-06T18:54:12.901Z,10.40
2023-03-06T18:56:44.070Z,10.87
2023-03-06T18:59:16.114Z,10.50
2023-03-06T19:01:47.584Z,8.07
2023-03-06T19:04:15.422Z,6.43
2023-03-06T19:06:43.049Z,10.27
2023-03-06T19:09:11.345Z,5.97
2023-03-06T19:11:39.110Z,6.33
2023-03-06T19:14:07.031Z,8.90
2023-03-06T19:16:34.914Z,6.43
2023-03-06T19:19:03.970Z,6.30
2023-03-06T19:21:31.558Z,6.10
2023-03-06T19:23:59.812Z,7.30
2023-03-06T19:26:28.031Z,7.83
2023-03-06T19:28:55.885Z,6.67
2023-03-06T19:31:25.957Z,6.70
2023-03-06T19:33:54.825Z,6.30
2023-03-06T19:36:27.553Z,6.17
2023-03-06T19:38:56.223Z,6.50
2023-03-06T19:41:24.033Z,7.10
2023-03-06T19:43:53.807Z,8.43
2023-03-06T19:46:22.116Z,19.07
2023-03-06T19:48:54.645Z,9.67
2023-03-06T19:51:24.863Z,16.53
2023-03-06T19:53:52.880Z,10.67
2023-03-06T19:56:22.163Z,11.30
2023-03-06T19:58:49.850Z,12.17
2023-03-06T20:01:20.172Z,8.80
2023-03-06T20:03:48.005Z,8.77
2023-03-06T20:06:18.452Z,8.40
2023-03-06T20:08:48.829Z,8.80
2023-03-06T20:11:17.570Z,9.20
2023-03-06T20:13:47.586Z,9.00
2023-03-06T20:16:15.488Z,8.80
2023-03-06T20:18:43.387Z,8.53
2023-03-06T20:21:11.023Z,9.07
2023-03-06T20:23:38.757Z,9.00
2023-03-06T20:26:09.978Z,8.80
2023-03-06T20:28:39.300Z,9.10
2023-03-06T20:31:08.602Z,9.10
2023-03-06T20:33:36.376Z,9.23
2023-03-06T20:36:04.381Z,8.57
2023-03-06T20:38:32.003Z,9.00
2023-03-06T20:40:59.691Z,9.50
2023-03-06T20:43:28.632Z,9.27
2023-03-06T20:45:58.128Z,9.60
2023-03-06T20:48:25.911Z,9.80
2023-03-06T20:51:03.846Z,9.00
2023-03-06T20:53:31.950Z,9.43
2023-03-06T20:55:59.608Z,9.43
2023-03-06T20:58:30.136Z,9.47
2023-03-06T21:00:57.803Z,8.90
2023-03-06T21:03:25.839Z,8.83
2023-03-06T21:05:53.464Z,8.97
2023-03-06T21:08:21.255Z,9.47
2023-03-06T21:10:49.159Z,8.70
2023-03-06T21:13:17.105Z,9.10
2023-03-06T21:15:47.541Z,9.30
2023-03-06T21:18:15.680Z,9.30
2023-03-06T21:20:43.634Z,9.23
2023-03-06T21:23:11.236Z,9.00
2023-03-06T21:25:47.108Z,8.30
2023-03-06T21:28:14.909Z,9.30
2023-03-06T21:30:42.956Z,8.80
2023-03-06T21:33:12.190Z,9.67
2023-03-06T21:35:40.479Z,9.30
2023-03-06T21:38:09.008Z,9.70
2023-03-06T21:40:36.861Z,9.40
2023-03-06T21:43:05.030Z,8.20
2023-03-06T21:45:32.798Z,8.50
2023-03-06T21:48:01.328Z,7.93
2023-03-06T21:50:30.446Z,8.23
2023-03-06T21:52:58.301Z,7.30
2023-03-06T21:55:25.918Z,7.70
2023-03-06T21:57:54.948Z,7.60
2023-03-06T22:00:23.821Z,7.80
2023-03-06T22:02:51.716Z,8.27
2023-03-06T22:05:19.888Z,8.00
2023-03-06T22:07:48.907Z,8.43
2023-03-06T22:10:16.572Z,9.63
2023-03-06T22:12:45.775Z,8.10
2023-03-06T22:15:13.365Z,8.53
2023-03-06T22:17:41.613Z,8.53
2023-03-06T22:20:11.077Z,8.70
2023-03-06T22:22:38.727Z,10.23
2023-03-06T22:25:09.242Z,8.63
2023-03-06T22:27:37.408Z,9.37
2023-03-06T22:30:06.130Z,8.87
2023-03-06T22:32:33.873Z,9.07
2023-03-06T22:35:01.506Z,9.53
2023-03-06T22:37:29.159Z,9.67
2023-03-06T22:39:56.735Z,11.03
2023-03-06T22:42:25.749Z,10.07
2023-03-06T22:44:53.349Z,10.03
2023-03-06T22:47:20.970Z,10.20
2023-03-06T22:49:48.581Z,10.23
2023-03-06T22:52:19.543Z,10.67
2023-03-06T22:54:47.190Z,9.87
2023-03-06T22:57:14.892Z,11.10
2023-03-06T22:59:43.974Z,11.00
2023-03-06T23:02:11.589Z,11.13
2023-03-06T23:04:39.856Z,11.57
2023-03-06T23:07:07.548Z,11.70
2023-03-06T23:09:35.459Z,12.37
2023-03-06T23:12:03.188Z,12.70
2023-03-06T23:14:30.822Z,14.30
2023-03-06T23:16:59.797Z,14.43
2023-03-06T23:19:27.404Z,15.03
2023-03-06T23:21:55.174Z,16.73
2023-03-06T23:24:22.941Z,15.80
2023-03-06T23:26:50.830Z,15.03
2023-03-06T23:29:18.457Z,15.77
2023-03-06T23:31:46.218Z,16.60
2023-03-06T23:34:15.231Z,16.40
2023-03-06T23:36:42.813Z,17.53
2023-03-06T23:39:12.407Z,18.13
2023-03-06T23:41:40.035Z,17.97
2023-03-06T23:44:07.960Z,19.93
2023-03-06T23:46:35.631Z,18.40
2023-03-06T23:49:03.686Z,19.80
2023-03-06T23:51:32.621Z,20.60
2023-03-06T23:54:01.216Z,22.07
2023-03-06T23:56:29.499Z,23.23
2023-03-06T23:58:57.394Z,24.67
